Time;durP1;ratioP1;P1;durP2;ratioP2;P2;SDS_P1;SDS_P2;PMS_P1;PMS_P2;Temp;Humidity;BMP_temperature;BMP_pressure;BME280_temperature;BME280_humidity;BME280_pressure;Samples;Min_cycle;Max_cycle;Signal;HPM_P1;HPM_P2
2022/08/13 00:01:20;;;;;;;0.47;0.40;;;;;;;;;;4968900;28;20050;-80
2022/08/13 00:03:52;;;;;;;0.25;0.20;;;;;;;;;;4969784;28;20050;-80
2022/08/13 00:09:22;;;;;;;0.22;0.20;;;;;;;;;;4969273;28;20042;-80
2022/08/13 00:14:59;;;;;;;0.30;0.30;;;;;;;;;;4969520;28;20058;-80
2022/08/13 00:17:31;;;;;;;0.20;0.20;;;;;;;;;;4971709;28;20050;-80
2022/08/13 00:20:22;;;;;;;0.17;0.17;;;;;;;;;;4969109;28;20050;-81
2022/08/13 00:22:55;;;;;;;0.03;0.03;;;;;;;;;;4970898;28;20051;-79
2022/08/13 00:25:29;;;;;;;0.60;0.20;;;;;;;;;;4972761;28;20290;-80
2022/08/13 00:28:14;;;;;;;0.25;0.25;;;;;;;;;;4972164;28;20046;-80
2022/08/13 00:30:44;;;;;;;0.20;0.20;;;;;;;;;;4972088;28;20046;-80
2022/08/13 00:33:15;;;;;;;0.40;0.40;;;;;;;;;;4976738;28;20130;-80
2022/08/13 00:35:48;;;;;;;0.20;0.20;;;;;;;;;;4970795;28;20462;-81
2022/08/13 00:38:21;;;;;;;0.20;0.20;;;;;;;;;;4970905;28;20105;-80
2022/08/13 00:41:06;;;;;;;0.70;0.40;;;;;;;;;;4972580;28;20053;-80
2022/08/13 00:43:45;;;;;;;0.30;0.30;;;;;;;;;;4971580;28;20086;-80
2022/08/13 00:46:14;;;;;;;0.32;0.32;;;;;;;;;;4970612;28;20130;-78
2022/08/13 00:48:43;;;;;;;2.50;0.50;;;;;;;;;;4967776;28;20047;-80
2022/08/13 00:51:21;;;;;;;1.00;0.20;;;;;;;;;;4971095;28;20078;-80
2022/08/13 00:54:12;;;;;;;0.82;0.70;;;;;;;;;;4966825;28;20137;-79
2022/08/13 00:56:40;;;;;;;0.50;0.20;;;;;;;;;;4970411;28;20071;-80
2022/08/13 00:59:12;;;;;;;0.20;0.20;;;;;;;;;;4969255;28;20323;-79
2022/08/13 01:01:41;;;;;;;4.68;0.40;;;;;;;;;;4964474;28;20051;-79
2022/08/13 01:04:17;;;;;;;0.13;0.13;;;;;;;;;;4972033;28;20058;-80
2022/08/13 01:06:48;;;;;;;0.70;0.45;;;;;;;;;;4969241;28;20078;-80
2022/08/13 01:09:19;;;;;;;0.28;0.20;;;;;;;;;;4971527;28;20518;-80
2022/08/13 01:12:09;;;;;;;0.15;0.15;;;;;;;;;;4961818;28;20050;-79
2022/08/13 01:14:44;;;;;;;0.10;0.10;;;;;;;;;;4971235;28;20049;-79
2022/08/13 01:17:16;;;;;;;0.30;0.30;;;;;;;;;;4969161;28;20416;-80
2022/08/13 01:19:44;;;;;;;0.32;0.25;;;;;;;;;;4967762;28;20047;-80
2022/08/13 01:22:23;;;;;;;0.30;0.30;;;;;;;;;;4970742;28;20047;-79
2022/08/13 01:25:04;;;;;;;0.30;0.30;;;;;;;;;;4966511;28;20125;-80
2022/08/13 01:27:37;;;;;;;0.15;0.15;;;;;;;;;;4972589;28;20061;-80
2022/08/13 01:30:10;;;;;;;0.22;0.22;;;;;;;;;;4967524;28;20062;-79
2022/08/13 01:32:42;;;;;;;0.32;0.32;;;;;;;;;;4972406;28;20074;-79
2022/08/13 01:35:23;;;;;;;0.32;0.30;;;;;;;;;;4969806;28;20058;-80
2022/08/13 01:37:54;;;;;;;0.30;0.30;;;;;;;;;;4970642;28;20087;-79
2022/08/13 01:40:31;;;;;;;0.30;0.30;;;;;;;;;;4970096;28;20104;-80
2022/08/13 01:43:01;;;;;;;1.38;0.20;;;;;;;;;;4972275;28;20146;-80
2022/08/13 01:45:50;;;;;;;0.10;0.10;;;;;;;;;;4969783;28;20452;-80
2022/08/13 01:51:09;;;;;;;0.20;0.20;;;;;;;;;;4969153;28;20070;-80
2022/08/13 01:53:51;;;;;;;0.30;0.30;;;;;;;;;;4970311;28;20050;-79
2022/08/13 01:56:21;;;;;;;0.60;0.35;;;;;;;;;;4969195;28;20070;-80
2022/08/13 01:58:53;;;;;;;0.40;0.40;;;;;;;;;;4971408;28;20050;-80
2022/08/13 02:01:37;;;;;;;0.20;0.20;;;;;;;;;;4965287;28;20082;-80
2022/08/13 02:04:13;;;;;;;0.15;0.15;;;;;;;;;;4970088;28;20062;-80
2022/08/13 02:06:53;;;;;;;0.30;0.30;;;;;;;;;;4969878;28;20051;-81
2022/08/13 02:09:24;;;;;;;0.93;0.40;;;;;;;;;;4965338;28;20069;-79
2022/08/13 02:12:13;;;;;;;0.45;0.28;;;;;;;;;;4966846;28;20057;-80
2022/08/13 02:15:05;;;;;;;0.10;0.10;;;;;;;;;;4969899;28;20063;-79
2022/08/13 02:17:41;;;;;;;0.52;0.52;;;;;;;;;;4970303;28;20431;-80
2022/08/13 02:20:32;;;;;;;0.52;0.30;;;;;;;;;;4967441;28;20054;-79
2022/08/13 02:23:05;;;;;;;0.30;0.25;;;;;;;;;;4970736;28;20098;-80
2022/08/13 02:25:36;;;;;;;0.20;0.20;;;;;;;;;;4968635;28;20047;-82
2022/08/13 02:28:05;;;;;;;0.30;0.30;;;;;;;;;;4968175;28;20130;-80
2022/08/13 02:30:49;;;;;;;0.22;0.22;;;;;;;;;;4965267;28;20051;-80
2022/08/13 02:33:22;;;;;;;0.17;0.10;;;;;;;;;;4968924;28;20418;-80
2022/08/13 02:35:54;;;;;;;0.20;0.20;;;;;;;;;;4965189;28;20055;-80
2022/08/13 02:38:23;;;;;;;1.27;0.22;;;;;;;;;;4970293;28;20345;-80
2022/08/13 02:43:46;;;;;;;0.28;0.20;;;;;;;;;;4965522;28;20313;-80
2022/08/13 02:46:26;;;;;;;0.35;0.30;;;;;;;;;;4969224;28;20047;-80
2022/08/13 02:49:01;;;;;;;0.08;0.08;;;;;;;;;;4968581;28;20109;-80
2022/08/13 02:51:31;;;;;;;0.40;0.40;;;;;;;;;;4969443;28;20054;-80
2022/08/13 02:54:20;;;;;;;0.45;0.30;;;;;;;;;;4959949;28;20038;-81
2022/08/13 02:56:50;;;;;;;0.40;0.15;;;;;;;;;;4968114;28;20065;-79
2022/08/13 02:59:19;;;;;;;0.30;0.25;;;;;;;;;;4966522;28;20094;-79
2022/08/13 03:02:07;;;;;;;0.30;0.28;;;;;;;;;;4968059;28;20503;-80
2022/08/13 03:04:45;;;;;;;0.20;0.20;;;;;;;;;;4968679;28;20053;-82
2022/08/13 03:07:13;;;;;;;0.17;0.17;;;;;;;;;;4958202;28;20134;-79
2022/08/13 03:09:42;;;;;;;0.98;0.15;;;;;;;;;;4967516;28;20142;-79
2022/08/13 03:12:15;;;;;;;0.20;0.20;;;;;;;;;;4969921;28;20059;-78
2022/08/13 03:14:45;;;;;;;0.88;0.40;;;;;;;;;;4966492;28;20046;-82
2022/08/13 03:17:18;;;;;;;0.47;0.25;;;;;;;;;;4968458;28;20058;-81
2022/08/13 03:19:51;;;;;;;0.70;0.50;;;;;;;;;;4971055;28;20134;-80
2022/08/13 03:22:27;;;;;;;0.20;0.20;;;;;;;;;;4968048;28;20074;-79
2022/08/13 03:24:55;;;;;;;0.40;0.40;;;;;;;;;;4958762;28;20561;-79
2022/08/13 03:27:27;;;;;;;0.20;0.20;;;;;;;;;;4968540;28;20082;-80
2022/08/13 03:29:59;;;;;;;0.20;0.20;;;;;;;;;;4965710;28;20051;-80
2022/08/13 03:32:38;;;;;;;0.38;0.22;;;;;;;;;;4969889;28;20047;-80
2022/08/13 03:35:06;;;;;;;0.60;0.35;;;;;;;;;;4965588;28;20070;-80
2022/08/13 03:37:40;;;;;;;0.43;0.20;;;;;;;;;;4967037;28;20047;-80
2022/08/13 03:40:11;;;;;;;0.40;0.30;;;;;;;;;;4966427;28;20078;-80
2022/08/13 03:42:44;;;;;;;0.22;0.22;;;;;;;;;;4965011;28;20097;-80
2022/08/13 03:45:22;;;;;;;0.28;0.28;;;;;;;;;;4968745;28;20129;-80
2022/08/13 03:47:51;;;;;;;0.30;0.30;;;;;;;;;;4970173;28;20062;-80
2022/08/13 03:50:21;;;;;;;0.43;0.30;;;;;;;;;;4969968;28;20110;-80
2022/08/13 03:52:52;;;;;;;0.40;0.40;;;;;;;;;;4972867;28;20042;-80
2022/08/13 03:55:22;;;;;;;0.47;0.47;;;;;;;;;;4972357;28;20105;-80
2022/08/13 03:57:52;;;;;;;0.30;0.30;;;;;;;;;;4971990;28;20070;-80
2022/08/13 04:00:41;;;;;;;0.47;0.40;;;;;;;;;;4966710;28;20172;-79
2022/08/13 04:03:19;;;;;;;0.95;0.43;;;;;;;;;;4967409;28;20577;-80
2022/08/13 04:05:50;;;;;;;0.77;0.77;;;;;;;;;;4972679;28;20059;-79
2022/08/13 04:08:24;;;;;;;0.13;0.13;;;;;;;;;;4972204;28;20439;-80
2022/08/13 04:10:52;;;;;;;0.28;0.20;;;;;;;;;;4972824;28;20126;-79
2022/08/13 04:13:24;;;;;;;3.28;2.17;;;;;;;;;;4970399;28;20109;-80
2022/08/13 04:16:13;;;;;;;0.70;0.32;;;;;;;;;;4972169;28;20061;-79
2022/08/13 04:18:43;;;;;;;0.40;0.38;;;;;;;;;;4969827;28;20054;-79
2022/08/13 04:21:14;;;;;;;0.80;0.77;;;;;;;;;;4970336;28;20082;-81
2022/08/13 04:23:50;;;;;;;0.20;0.20;;;;;;;;;;4967264;28;20054;-80
2022/08/13 04:26:24;;;;;;;0.30;0.25;;;;;;;;;;4969267;28;20058;-80
2022/08/13 04:29:02;;;;;;;0.50;0.50;;;;;;;;;;4971163;28;20480;-79
2022/08/13 04:31:31;;;;;;;0.20;0.20;;;;;;;;;;4969534;28;20066;-79
2022/08/13 04:34:16;;;;;;;0.28;0.28;;;;;;;;;;4970632;28;20063;-79
2022/08/13 04:37:04;;;;;;;0.43;0.43;;;;;;;;;;4972482;28;20055;-81
2022/08/13 04:39:36;;;;;;;0.20;0.20;;;;;;;;;;4972088;28;20487;-80
2022/08/13 04:42:24;;;;;;;0.08;0.08;;;;;;;;;;4971871;28;20051;-80
2022/08/13 04:45:02;;;;;;;0.77;0.43;;;;;;;;;;4964659;28;20047;-79
2022/08/13 04:47:38;;;;;;;0.10;0.10;;;;;;;;;;4966477;28;20129;-79
2022/08/13 04:50:08;;;;;;;0.10;0.10;;;;;;;;;;4972376;28;20058;-81
2022/08/13 04:52:38;;;;;;;0.20;0.20;;;;;;;;;;4969433;28;20046;-79
2022/08/13 04:55:10;;;;;;;0.68;0.68;;;;;;;;;;4968378;28;20038;-79
2022/08/13 04:57:42;;;;;;;0.20;0.20;;;;;;;;;;4968246;28;20134;-80
2022/08/13 05:00:25;;;;;;;0.73;0.40;;;;;;;;;;4972133;28;20050;-79
2022/08/13 05:02:54;;;;;;;0.20;0.20;;;;;;;;;;4970401;28;20089;-80
2022/08/13 05:05:24;;;;;;;0.60;0.28;;;;;;;;;;4971129;28;20109;-79
2022/08/13 05:07:54;;;;;;;0.35;0.35;;;;;;;;;;4968861;28;20288;-79
2022/08/13 05:10:23;;;;;;;0.98;0.50;;;;;;;;;;4968557;28;20073;-79
2022/08/13 05:12:58;;;;;;;0.85;0.85;;;;;;;;;;4967636;28;20054;-79
2022/08/13 05:15:33;;;;;;;0.85;0.63;;;;;;;;;;4969906;28;20061;-80
2022/08/13 05:18:15;;;;;;;0.97;0.40;;;;;;;;;;4969982;28;20054;-80
2022/08/13 05:20:55;;;;;;;0.35;0.35;;;;;;;;;;4971778;28;20074;-80
2022/08/13 05:23:25;;;;;;;0.63;0.30;;;;;;;;;;4971143;28;20467;-80
2022/08/13 05:26:14;;;;;;;0.20;0.20;;;;;;;;;;4965409;28;20046;-80
2022/08/13 05:29:04;;;;;;;0.28;0.28;;;;;;;;;;4971239;28;20050;-79
2022/08/13 05:31:35;;;;;;;0.20;0.20;;;;;;;;;;4966892;28;20051;-80
2022/08/13 05:34:24;;;;;;;0.22;0.22;;;;;;;;;;4969115;28;20050;-79
2022/08/13 05:36:53;;;;;;;0.10;0.10;;;;;;;;;;4970009;28;20070;-79
2022/08/13 05:39:42;;;;;;;0.45;0.35;;;;;;;;;;4969495;28;20057;-80
2022/08/13 05:42:18;;;;;;;0.50;0.45;;;;;;;;;;4970864;28;20078;-80
2022/08/13 05:44:54;;;;;;;0.20;0.20;;;;;;;;;;4969748;28;20110;-79
2022/08/13 05:47:24;;;;;;;0.43;0.25;;;;;;;;;;4970029;28;20118;-79
2022/08/13 05:49:53;;;;;;;0.20;0.20;;;;;;;;;;4968687;28;20053;-80
2022/08/13 05:52:26;;;;;;;0.17;0.17;;;;;;;;;;4971197;28;20141;-79
2022/08/13 05:55:07;;;;;;;0.45;0.20;;;;;;;;;;4970175;28;20149;-79
2022/08/13 05:57:57;;;;;;;0.30;0.30;;;;;;;;;;4972315;28;20054;-79
2022/08/13 06:06:16;;;;;;;1.10;0.55;;;;;;;;;;4965589;28;20065;-79
2022/08/13 06:08:56;;;;;;;0.30;0.30;;;;;;;;;;4964170;28;20051;-79
2022/08/13 06:11:27;;;;;;;0.38;0.30;;;;;;;;;;4966349;28;20055;-80
2022/08/13 06:14:20;;;;;;;0.45;0.40;;;;;;;;;;4971034;28;20471;-79
2022/08/13 06:16:51;;;;;;;0.20;0.20;;;;;;;;;;4966672;28;20058;-80
2022/08/13 06:19:25;;;;;;;0.40;0.40;;;;;;;;;;4964108;28;20049;-81
2022/08/13 06:21:59;;;;;;;0.75;0.38;;;;;;;;;;4969366;28;20049;-80
2022/08/13 06:24:29;;;;;;;0.10;0.10;;;;;;;;;;4968767;28;20051;-80
2022/08/13 06:27:00;;;;;;;0.20;0.20;;;;;;;;;;4962211;28;20051;-81
2022/08/13 06:29:29;;;;;;;0.20;0.20;;;;;;;;;;4964227;28;20051;-81
2022/08/13 06:32:08;;;;;;;0.30;0.30;;;;;;;;;;4970107;28;20051;-80
2022/08/13 06:34:58;;;;;;;0.73;0.40;;;;;;;;;;4966841;28;20487;-80
2022/08/13 06:37:29;;;;;;;0.20;0.20;;;;;;;;;;4964181;28;20070;-81
2022/08/13 06:40:07;;;;;;;1.15;0.70;;;;;;;;;;4961870;28;20070;-80
2022/08/13 06:42:56;;;;;;;0.20;0.20;;;;;;;;;;4960085;28;20042;-80
2022/08/13 06:45:26;;;;;;;0.38;0.38;;;;;;;;;;4958463;28;20059;-80
2022/08/13 06:48:01;;;;;;;0.20;0.20;;;;;;;;;;4964474;28;20559;-86
2022/08/13 06:50:34;;;;;;;0.90;0.25;;;;;;;;;;4964854;28;20053;-81
2022/08/13 06:53:14;;;;;;;0.30;0.15;;;;;;;;;;4966725;28;20046;-79
2022/08/13 06:56:07;;;;;;;0.10;0.10;;;;;;;;;;4962166;28;20050;-79
2022/08/13 06:58:58;;;;;;;0.00;0.00;;;;;;;;;;4965339;28;20402;-80
2022/08/13 07:01:27;;;;;;;0.43;0.30;;;;;;;;;;4960161;28;20137;-80
2022/08/13 07:04:18;;;;;;;0.28;0.25;;;;;;;;;;4960157;28;20423;-81
2022/08/13 07:06:59;;;;;;;3.72;0.28;;;;;;;;;;4961913;28;20046;-80
2022/08/13 07:09:30;;;;;;;0.73;0.20;;;;;;;;;;4965604;28;20051;-81
2022/08/13 07:12:12;;;;;;;0.10;0.10;;;;;;;;;;4962234;28;20054;-81
2022/08/13 07:14:43;;;;;;;0.10;0.10;;;;;;;;;;4958415;28;20098;-80
2022/08/13 07:17:28;;;;;;;0.10;0.10;;;;;;;;;;4948066;28;20768;-81
2022/08/13 07:20:02;;;;;;;0.13;0.10;;;;;;;;;;4959933;28;20142;-82
2022/08/13 07:22:37;;;;;;;0.25;0.20;;;;;;;;;;4961677;28;20531;-82
2022/08/13 07:25:27;;;;;;;0.20;0.20;;;;;;;;;;4965034;28;20574;-81
2022/08/13 07:28:18;;;;;;;0.15;0.15;;;;;;;;;;4968518;28;20050;-82
2022/08/13 07:31:11;;;;;;;0.08;0.08;;;;;;;;;;4971678;28;20050;-81
2022/08/13 07:33:43;;;;;;;0.20;0.20;;;;;;;;;;4972116;28;20138;-82
2022/08/13 07:36:27;;;;;;;0.35;0.20;;;;;;;;;;4970913;28;20074;-81
2022/08/13 07:38:57;;;;;;;0.10;0.10;;;;;;;;;;4968390;28;20105;-81
2022/08/13 07:41:27;;;;;;;0.10;0.10;;;;;;;;;;4973745;28;20055;-81
2022/08/13 07:43:59;;;;;;;0.10;0.10;;;;;;;;;;4973312;28;20151;-81
2022/08/13 07:46:42;;;;;;;0.00;0.00;;;;;;;;;;4972686;28;20530;-81
2022/08/13 07:49:18;;;;;;;0.10;0.10;;;;;;;;;;4965874;28;20051;-79
2022/08/13 07:51:48;;;;;;;0.10;0.10;;;;;;;;;;4972955;28;20050;-81
2022/08/13 07:54:20;;;;;;;0.20;0.20;;;;;;;;;;4973548;28;20055;-80
2022/08/13 07:56:51;;;;;;;0.08;0.08;;;;;;;;;;4972772;28;20054;-80
2022/08/13 07:59:22;;;;;;;0.32;0.20;;;;;;;;;;4972791;28;20062;-81
2022/08/13 08:02:12;;;;;;;0.30;0.15;;;;;;;;;;4972469;28;20522;-81
2022/08/13 08:04:52;;;;;;;0.05;0.05;;;;;;;;;;4970715;28;20046;-82
2022/08/13 08:07:22;;;;;;;0.30;0.30;;;;;;;;;;4972439;28;20069;-82
2022/08/13 08:09:52;;;;;;;0.20;0.20;;;;;;;;;;4970671;28;20301;-82
2022/08/13 08:12:35;;;;;;;0.75;0.45;;;;;;;;;;4972049;28;20078;-81
2022/08/13 08:15:21;;;;;;;0.50;0.30;;;;;;;;;;4961496;28;20054;-81
2022/08/13 08:18:10;;;;;;;0.30;0.20;;;;;;;;;;4970767;28;20054;-82
2022/08/13 08:21:06;;;;;;;0.10;0.10;;;;;;;;;;4971677;28;20046;-81
2022/08/13 08:23:57;;;;;;;0.00;0.00;;;;;;;;;;4967612;28;20615;-81
2022/08/13 08:26:28;;;;;;;0.22;0.20;;;;;;;;;;4970408;28;20525;-82
2022/08/13 08:28:57;;;;;;;0.30;0.25;;;;;;;;;;4971963;28;20565;-81
2022/08/13 08:31:26;;;;;;;3.40;0.45;;;;;;;;;;4970499;28;20109;-81
2022/08/13 08:34:16;;;;;;;0.55;0.20;;;;;;;;;;4969147;28;20055;-81
2022/08/13 08:36:45;;;;;;;0.98;0.30;;;;;;;;;;4967277;28;20135;-81
2022/08/13 08:45:01;;;;;;;2.05;0.30;;;;;;;;;;4960125;28;20074;-82
2022/08/13 08:47:40;;;;;;;0.50;0.20;;;;;;;;;;4969094;28;20050;-82
2022/08/13 08:50:26;;;;;;;0.20;0.20;;;;;;;;;;4967579;28;20487;-81
2022/08/13 08:56:08;;;;;;;0.82;0.28;;;;;;;;;;4966617;28;20073;-82
2022/08/13 08:58:41;;;;;;;0.82;0.43;;;;;;;;;;4965793;28;20051;-81
2022/08/13 09:01:11;;;;;;;0.38;0.38;;;;;;;;;;4964141;28;20141;-82
2022/08/13 09:03:42;;;;;;;0.30;0.30;;;;;;;;;;4962768;28;20074;-81
2022/08/13 09:06:26;;;;;;;0.45;0.30;;;;;;;;;;4966888;28;20047;-82
2022/08/13 09:09:15;;;;;;;0.28;0.25;;;;;;;;;;4962250;28;20404;-81
2022/08/13 09:11:47;;;;;;;0.20;0.20;;;;;;;;;;4965306;28;20055;-81
2022/08/13 09:14:25;;;;;;;1.10;0.45;;;;;;;;;;4966747;28;20067;-81
2022/08/13 09:16:55;;;;;;;0.68;0.57;;;;;;;;;;4961852;28;20054;-81
2022/08/13 09:19:24;;;;;;;0.45;0.20;;;;;;;;;;4965722;28;20051;-81
2022/08/13 09:22:15;;;;;;;0.60;0.60;;;;;;;;;;4960870;28;20380;-82
2022/08/13 09:24:49;;;;;;;0.43;0.43;;;;;;;;;;4966319;28;20054;-81
2022/08/13 09:27:18;;;;;;;0.40;0.40;;;;;;;;;;4962337;28;20053;-82
2022/08/13 09:29:50;;;;;;;2.38;0.80;;;;;;;;;;4964637;28;20141;-81
2022/08/13 09:32:29;;;;;;;0.63;0.60;;;;;;;;;;4964644;28;20054;-81
2022/08/13 09:35:01;;;;;;;0.60;0.55;;;;;;;;;;4963873;28;20043;-81
2022/08/13 09:37:31;;;;;;;1.25;0.50;;;;;;;;;;4967369;28;20043;-81
2022/08/13 09:40:20;;;;;;;1.23;0.57;;;;;;;;;;4968353;28;20058;-81
2022/08/13 09:43:10;;;;;;;1.17;0.68;;;;;;;;;;4968891;28;20058;-82
2022/08/13 09:45:42;;;;;;;0.57;0.40;;;;;;;;;;4963626;28;20065;-82
2022/08/13 09:48:15;;;;;;;0.60;0.60;;;;;;;;;;4970287;28;20062;-83
2022/08/13 09:51:09;;;;;;;0.70;0.50;;;;;;;;;;4965812;28;20059;-87
2022/08/13 09:53:57;;;;;;;0.45;0.45;;;;;;;;;;4972031;28;20141;-82
2022/08/13 09:56:30;;;;;;;0.52;0.45;;;;;;;;;;4969403;28;20050;-83
2022/08/13 09:59:00;;;;;;;0.38;0.35;;;;;;;;;;4962903;28;20161;-82
2022/08/13 10:01:32;;;;;;;0.80;0.80;;;;;;;;;;4964378;28;20440;-81
2022/08/13 10:04:20;;;;;;;1.40;0.70;;;;;;;;;;4968912;28;20054;-82
2022/08/13 10:06:49;;;;;;;0.50;0.50;;;;;;;;;;4967658;28;20562;-82
2022/08/13 10:09:28;;;;;;;0.57;0.38;;;;;;;;;;4965385;28;20126;-82
2022/08/13 10:12:01;;;;;;;0.85;0.65;;;;;;;;;;4961097;28;20078;-83
2022/08/13 10:14:48;;;;;;;0.65;0.40;;;;;;;;;;4959236;28;20961;-86
2022/08/13 10:17:26;;;;;;;1.02;0.88;;;;;;;;;;4929426;28;20051;-88
2022/08/13 10:20:15;;;;;;;1.67;0.60;;;;;;;;;;4965308;28;20059;-86
2022/08/13 10:22:44;;;;;;;1.00;0.75;;;;;;;;;;4962266;28;20422;-86
2022/08/13 10:25:13;;;;;;;0.60;0.60;;;;;;;;;;4960943;28;20130;-85
2022/08/13 10:27:45;;;;;;;0.80;0.47;;;;;;;;;;4967391;28;20043;-88
2022/08/13 10:30:18;;;;;;;0.68;0.50;;;;;;;;;;4966339;28;20061;-90
2022/08/13 10:33:08;;;;;;;1.02;0.75;;;;;;;;;;4967922;28;20069;-86
2022/08/13 10:35:37;;;;;;;1.10;0.80;;;;;;;;;;4963394;28;20557;-86
2022/08/13 10:38:14;;;;;;;0.80;0.70;;;;;;;;;;4962284;28;20058;-90
2022/08/13 10:40:47;;;;;;;0.57;0.50;;;;;;;;;;4963750;28;20069;-88
2022/08/13 10:43:16;;;;;;;0.73;0.52;;;;;;;;;;4970472;28;20058;-89
2022/08/13 10:45:56;;;;;;;1.10;0.60;;;;;;;;;;4966541;28;20055;-87
2022/08/13 10:48:36;;;;;;;0.73;0.70;;;;;;;;;;4959899;28;21179;-89
2022/08/13 10:51:09;;;;;;;0.55;0.50;;;;;;;;;;4960374;28;20050;-88
2022/08/13 10:53:58;;;;;;;0.80;0.60;;;;;;;;;;4962820;28;20209;-87
2022/08/13 10:56:28;;;;;;;1.05;0.65;;;;;;;;;;4953077;28;20114;-87
2022/08/13 10:58:59;;;;;;;1.27;0.80;;;;;;;;;;4958991;28;20141;-91
2022/08/13 11:01:28;;;;;;;1.13;0.65;;;;;;;;;;4960565;28;20051;-90
2022/08/13 11:04:00;;;;;;;1.48;0.60;;;;;;;;;;4958522;28;20423;-89
2022/08/13 11:06:33;;;;;;;1.00;0.60;;;;;;;;;;4962957;28;20061;-87
2022/08/13 11:09:04;;;;;;;0.75;0.60;;;;;;;;;;4965405;28;20542;-90
2022/08/13 11:11:53;;;;;;;0.75;0.60;;;;;;;;;;4963926;28;20081;-87
2022/08/13 11:14:23;;;;;;;0.55;0.55;;;;;;;;;;4965293;28;20055;-88
2022/08/13 11:16:59;;;;;;;0.90;0.80;;;;;;;;;;4965493;28;20411;-87
2022/08/13 11:19:34;;;;;;;1.38;0.90;;;;;;;;;;4961404;28;20117;-95
2022/08/13 11:22:20;;;;;;;1.10;0.75;;;;;;;;;;4964216;28;20055;-92
2022/08/13 11:24:55;;;;;;;0.93;0.70;;;;;;;;;;4955068;28;20551;-88
2022/08/13 11:27:24;;;;;;;1.63;0.57;;;;;;;;;;4962167;28;20053;-89
2022/08/13 11:30:14;;;;;;;0.60;0.60;;;;;;;;;;4962714;28;20253;-89
2022/08/13 11:33:03;;;;;;;2.80;0.98;;;;;;;;;;4963784;28;20051;-90
2022/08/13 11:35:35;;;;;;;0.70;0.60;;;;;;;;;;4966746;28;20055;-89
2022/08/13 11:38:08;;;;;;;0.65;0.57;;;;;;;;;;4966561;28;20495;-89
2022/08/13 11:40:37;;;;;;;0.60;0.60;;;;;;;;;;4961335;28;20061;-89
2022/08/13 11:43:07;;;;;;;1.52;0.70;;;;;;;;;;4965866;28;20050;-90
2022/08/13 11:45:45;;;;;;;0.68;0.65;;;;;;;;;;4964351;28;20471;-90
2022/08/13 11:48:16;;;;;;;0.88;0.63;;;;;;;;;;4961368;28;20496;-88
2022/08/13 11:50:48;;;;;;;1.00;0.60;;;;;;;;;;4963834;28;20051;-89
2022/08/13 11:53:17;;;;;;;1.25;0.75;;;;;;;;;;4960205;28;20062;-87
2022/08/13 11:55:52;;;;;;;0.60;0.57;;;;;;;;;;4950291;28;20047;-90
2022/08/13 11:58:34;;;;;;;0.52;0.52;;;;;;;;;;4947110;28;20055;-86
2022/08/13 12:01:21;;;;;;;2.53;0.80;;;;;;;;;;4943568;28;20320;-87
2022/08/13 12:03:53;;;;;;;0.43;0.43;;;;;;;;;;4942162;28;20185;-89
2022/08/13 12:06:43;;;;;;;0.30;0.30;;;;;;;;;;4958433;28;20057;-89
2022/08/13 12:09:18;;;;;;;0.70;0.50;;;;;;;;;;4966590;28;20613;-89
2022/08/13 12:12:06;;;;;;;0.43;0.43;;;;;;;;;;4963779;28;20063;-90
2022/08/13 12:14:40;;;;;;;0.45;0.40;;;;;;;;;;4961939;28;20046;-90
2022/08/13 12:17:08;;;;;;;0.50;0.40;;;;;;;;;;4965593;28;20060;-89
2022/08/13 12:19:38;;;;;;;0.68;0.52;;;;;;;;;;4959693;28;20100;-90
2022/08/13 12:22:07;;;;;;;3.85;1.55;;;;;;;;;;4970422;28;20054;-88
2022/08/13 12:24:36;;;;;;;0.98;0.57;;;;;;;;;;4963965;28;20039;-88
2022/08/13 12:27:13;;;;;;;1.05;0.50;;;;;;;;;;4968128;28;20050;-90
2022/08/13 12:29:44;;;;;;;0.65;0.57;;;;;;;;;;4967724;28;20053;-89
2022/08/13 12:32:15;;;;;;;0.70;0.60;;;;;;;;;;4969293;28;20051;-89
2022/08/13 12:34:46;;;;;;;1.35;0.90;;;;;;;;;;4967357;28;20058;-89
2022/08/13 12:37:23;;;;;;;2.60;0.43;;;;;;;;;;4932381;29;20059;-89
2022/08/13 12:39:52;;;;;;;0.63;0.45;;;;;;;;;;4949860;28;20051;-89
2022/08/13 12:42:23;;;;;;;0.80;0.70;;;;;;;;;;4945957;28;20055;-88
2022/08/13 12:45:05;;;;;;;0.80;0.50;;;;;;;;;;4948803;28;20073;-89
2022/08/13 12:47:53;;;;;;;1.67;0.50;;;;;;;;;;4971418;28;20047;-88
2022/08/13 12:50:22;;;;;;;0.60;0.60;;;;;;;;;;4961037;28;20047;-89
2022/08/13 12:52:54;;;;;;;0.40;0.40;;;;;;;;;;4969539;28;20043;-90
2022/08/13 12:55:22;;;;;;;0.73;0.52;;;;;;;;;;4960614;28;20101;-88
2022/08/13 12:58:12;;;;;;;0.40;0.32;;;;;;;;;;4943554;28;20055;-87
2022/08/13 13:00:42;;;;;;;0.40;0.40;;;;;;;;;;4940239;28;20129;-88
2022/08/13 13:03:11;;;;;;;0.73;0.73;;;;;;;;;;4949203;28;20066;-87
2022/08/13 13:05:41;;;;;;;0.82;0.60;;;;;;;;;;4942045;28;20777;-88
2022/08/13 13:08:18;;;;;;;0.45;0.45;;;;;;;;;;4943823;28;20138;-89
2022/08/13 13:10:59;;;;;;;1.17;0.70;;;;;;;;;;4943955;28;20047;-89
2022/08/13 13:13:28;;;;;;;0.80;0.60;;;;;;;;;;4949282;28;20066;-87
2022/08/13 13:16:19;;;;;;;0.63;0.45;;;;;;;;;;4943839;28;20563;-88
2022/08/13 13:19:03;;;;;;;0.98;0.50;;;;;;;;;;4946704;28;20044;-95
2022/08/13 13:21:38;;;;;;;0.60;0.50;;;;;;;;;;4949177;28;20051;-91
2022/08/13 13:24:09;;;;;;;0.95;0.70;;;;;;;;;;4945052;28;20043;-89
2022/08/13 13:26:47;;;;;;;0.80;0.60;;;;;;;;;;4961421;28;20050;-92
2022/08/13 13:29:30;;;;;;;0.80;0.70;;;;;;;;;;4965623;28;20070;-91
2022/08/13 13:32:06;;;;;;;0.43;0.40;;;;;;;;;;4965670;28;20436;-90
2022/08/13 13:34:56;;;;;;;1.83;0.82;;;;;;;;;;4966610;28;20059;-90
2022/08/13 13:37:27;;;;;;;0.50;0.50;;;;;;;;;;4968036;28;20482;-90
2022/08/13 13:40:17;;;;;;;1.42;0.45;;;;;;;;;;4970553;28;20047;-91
2022/08/13 13:42:46;;;;;;;0.68;0.30;;;;;;;;;;4971729;28;20415;-91
2022/08/13 13:45:35;;;;;;;0.95;0.55;;;;;;;;;;4968993;28;20050;-91
2022/08/13 13:48:20;;;;;;;2.42;0.47;;;;;;;;;;4971007;28;20098;-88
2022/08/13 13:50:51;;;;;;;0.47;0.40;;;;;;;;;;4970170;28;20050;-84
2022/08/13 13:53:20;;;;;;;0.82;0.50;;;;;;;;;;4964077;28;20138;-81
2022/08/13 13:56:10;;;;;;;0.57;0.50;;;;;;;;;;4965802;28;20058;-83
2022/08/13 13:58:39;;;;;;;0.95;0.85;;;;;;;;;;4963415;28;20137;-85
2022/08/13 14:01:23;;;;;;;0.88;0.60;;;;;;;;;;4969471;28;20077;-85
2022/08/13 14:03:53;;;;;;;0.35;0.30;;;;;;;;;;4968879;28;20038;-83
2022/08/13 14:06:29;;;;;;;0.95;0.50;;;;;;;;;;4968293;28;20052;-83
2022/08/13 14:09:00;;;;;;;0.52;0.50;;;;;;;;;;4971709;28;20047;-82
2022/08/13 14:11:34;;;;;;;0.73;0.63;;;;;;;;;;4961577;28;20070;-82
2022/08/13 14:14:16;;;;;;;0.50;0.40;;;;;;;;;;4961025;28;20554;-82
2022/08/13 14:16:47;;;;;;;0.93;0.52;;;;;;;;;;4962634;28;20487;-83
2022/08/13 14:19:17;;;;;;;0.47;0.47;;;;;;;;;;4968325;28;20483;-82
2022/08/13 14:22:06;;;;;;;0.80;0.60;;;;;;;;;;4963373;28;20128;-81
2022/08/13 14:24:35;;;;;;;1.00;0.60;;;;;;;;;;4959717;28;20495;-82
2022/08/13 14:27:06;;;;;;;0.88;0.70;;;;;;;;;;4960158;28;20039;-79
2022/08/13 14:29:40;;;;;;;0.98;0.70;;;;;;;;;;4962475;28;20089;-85
2022/08/13 14:32:08;;;;;;;0.52;0.50;;;;;;;;;;4958471;28;20137;-92
2022/08/13 14:34:37;;;;;;;2.83;0.98;;;;;;;;;;4960243;28;20050;-89
2022/08/13 14:37:08;;;;;;;0.90;0.60;;;;;;;;;;4956705;28;20050;-91
2022/08/13 14:39:49;;;;;;;0.40;0.40;;;;;;;;;;4958217;28;20047;-88
2022/08/13 14:42:29;;;;;;;0.50;0.50;;;;;;;;;;4959352;28;20051;-89
2022/08/13 14:48:22;;;;;;;0.70;0.50;;;;;;;;;;4956015;28;20077;-85
2022/08/13 14:50:52;;;;;;;0.22;0.22;;;;;;;;;;4953226;28;20058;-86
2022/08/13 14:53:24;;;;;;;0.50;0.50;;;;;;;;;;4959255;28;20050;-81
2022/08/13 14:55:56;;;;;;;0.90;0.50;;;;;;;;;;4954951;28;20063;-82
2022/08/13 14:58:26;;;;;;;0.25;0.25;;;;;;;;;;4956744;28;20121;-83
2022/08/13 15:01:02;;;;;;;1.10;0.77;;;;;;;;;;4956207;28;20039;-85
2022/08/13 15:03:36;;;;;;;0.50;0.50;;;;;;;;;;4954336;28;20565;-83
2022/08/13 15:06:09;;;;;;;0.70;0.52;;;;;;;;;;4958142;28;20047;-83
2022/08/13 15:08:39;;;;;;;0.98;0.60;;;;;;;;;;4962944;28;20534;-81
2022/08/13 15:11:08;;;;;;;0.50;0.50;;;;;;;;;;4963085;28;20499;-83
2022/08/13 15:13:47;;;;;;;1.08;0.93;;;;;;;;;;4962759;28;20138;-82
2022/08/13 15:16:25;;;;;;;0.50;0.40;;;;;;;;;;4959774;28;20309;-81
2022/08/13 15:19:10;;;;;;;0.57;0.50;;;;;;;;;;4957186;28;20054;-80
2022/08/13 15:21:45;;;;;;;0.50;0.50;;;;;;;;;;4958458;28;20137;-83
2022/08/13 15:24:28;;;;;;;3.67;0.70;;;;;;;;;;4954030;28;21757;-82
2022/08/13 15:27:28;;;;;;;0.43;0.43;;;;;;;;;;4937672;28;20059;-80
2022/08/13 15:30:05;;;;;;;0.68;0.50;;;;;;;;;;4938478;28;20166;-81
2022/08/13 15:32:34;;;;;;;0.85;0.70;;;;;;;;;;4941793;28;20078;-81
2022/08/13 15:35:03;;;;;;;1.10;0.77;;;;;;;;;;4942964;28;20126;-81
2022/08/13 15:37:31;;;;;;;2.05;0.73;;;;;;;;;;4944580;28;20047;-80
2022/08/13 15:40:21;;;;;;;1.90;0.70;;;;;;;;;;4942249;28;20051;-81
2022/08/13 15:43:00;;;;;;;0.50;0.45;;;;;;;;;;4942290;28;20107;-80
2022/08/13 15:45:38;;;;;;;0.60;0.60;;;;;;;;;;4949441;28;20164;-81
2022/08/13 15:48:10;;;;;;;0.88;0.57;;;;;;;;;;4968526;28;20414;-80
2022/08/13 15:50:49;;;;;;;0.43;0.43;;;;;;;;;;4963406;28;20082;-81
2022/08/13 15:53:18;;;;;;;0.40;0.35;;;;;;;;;;4962644;28;20653;-83
2022/08/13 15:55:48;;;;;;;1.33;0.60;;;;;;;;;;4965623;28;20050;-83
2022/08/13 15:58:24;;;;;;;1.30;0.60;;;;;;;;;;4966563;28;20566;-82
2022/08/13 16:01:00;;;;;;;0.40;0.40;;;;;;;;;;4967848;28;20050;-84
2022/08/13 16:03:51;;;;;;;0.40;0.40;;;;;;;;;;4962861;28;20051;-83
2022/08/13 16:06:23;;;;;;;0.87;0.63;;;;;;;;;;4955197;28;20055;-81